createdAt,value
2023-03-29T00:01:43.007Z,2.00
2023-03-29T00:03:47.204Z,1.73
2023-03-29T00:05:51.073Z,1.92
2023-03-29T00:07:54.376Z,1.73
2023-03-29T00:09:57.988Z,1.85
2023-03-29T00:12:01.110Z,1.98
2023-03-29T00:14:04.290Z,1.88
2023-03-29T00:16:07.624Z,1.90
2023-03-29T00:18:11.796Z,1.80
2023-03-29T00:20:14.607Z,1.65
2023-03-29T00:22:17.555Z,1.90
2023-03-29T00:24:21.105Z,1.92
2023-03-29T00:26:24.376Z,2.10
2023-03-29T00:28:27.187Z,1.67
2023-03-29T00:30:30.163Z,1.83
2023-03-29T00:32:34.288Z,1.77
2023-03-29T00:34:38.614Z,2.03
2023-03-29T00:36:41.462Z,1.88
2023-03-29T00:38:45.358Z,1.70
2023-03-29T00:40:48.403Z,2.00
2023-03-29T00:42:51.275Z,2.33
2023-03-29T00:45:03.716Z,1.88
2023-03-29T00:47:06.739Z,1.90
2023-03-29T00:49:13.883Z,1.95
2023-03-29T00:51:21.567Z,2.08
2023-03-29T00:53:32.302Z,2.30
2023-03-29T00:55:38.404Z,1.77
2023-03-29T00:57:43.312Z,2.35
2023-03-29T01:01:54.397Z,2.05
2023-03-29T01:04:04.154Z,2.40
2023-03-29T01:06:09.612Z,2.25
2023-03-29T01:08:18.243Z,1.85
2023-03-29T01:10:27.423Z,2.13
2023-03-29T01:12:35.818Z,2.53
2023-03-29T01:14:43.839Z,2.45
2023-03-29T01:16:47.658Z,2.28
2023-03-29T01:18:52.187Z,2.15
2023-03-29T01:21:15.326Z,2.72
2023-03-29T01:23:33.348Z,2.72
2023-03-29T01:25:43.321Z,2.38
2023-03-29T01:27:54.455Z,2.40
2023-03-29T01:30:04.069Z,2.03
2023-03-29T01:32:12.517Z,2.40
2023-03-29T01:34:22.538Z,2.33
2023-03-29T01:36:28.642Z,2.20
2023-03-29T01:38:35.663Z,2.33
2023-03-29T01:40:38.670Z,2.08
2023-03-29T01:42:47.719Z,2.65
2023-03-29T01:45:00.344Z,2.45
2023-03-29T01:47:12.754Z,2.53
2023-03-29T01:49:23.529Z,2.15
2023-03-29T01:51:31.638Z,2.28
2023-03-29T01:53:39.567Z,2.35
2023-03-29T01:55:48.299Z,2.22
2023-03-29T01:57:54.036Z,2.15
2023-03-29T01:59:59.781Z,2.50
2023-03-29T02:02:06.076Z,2.10
2023-03-29T02:04:14.049Z,2.50
2023-03-29T02:06:20.532Z,2.35
2023-03-29T02:08:23.577Z,2.60
2023-03-29T02:10:27.827Z,2.13
2023-03-29T02:12:31.027Z,2.42
2023-03-29T02:14:34.039Z,1.90
2023-03-29T02:16:38.879Z,2.03
2023-03-29T02:20:48.476Z,1.92
2023-03-29T02:22:58.656Z,2.20
2023-03-29T02:25:04.761Z,2.05
2023-03-29T02:27:08.019Z,2.13
2023-03-29T02:29:11.676Z,1.88
2023-03-29T02:31:21.202Z,2.10
2023-03-29T02:33:31.476Z,2.35
2023-03-29T02:35:38.531Z,1.90
2023-03-29T02:37:45.170Z,2.20
2023-03-29T02:39:50.020Z,2.30
2023-03-29T02:41:54.564Z,2.25
2023-03-29T02:44:01.389Z,2.45
2023-03-29T02:46:06.307Z,2.55
2023-03-29T02:50:16.516Z,2.13
2023-03-29T02:52:24.812Z,2.50
2023-03-29T02:54:31.554Z,2.55
2023-03-29T02:56:43.214Z,2.58
2023-03-29T02:58:46.187Z,2.25
2023-03-29T03:00:51.832Z,2.20
2023-03-29T03:02:55.179Z,2.33
2023-03-29T03:04:59.155Z,2.20
2023-03-29T03:07:05.102Z,2.78
2023-03-29T03:09:10.367Z,2.15
2023-03-29T03:11:16.901Z,2.78
2023-03-29T03:13:19.707Z,2.25
2023-03-29T03:15:22.617Z,2.47
2023-03-29T03:17:25.646Z,2.13
2023-03-29T03:19:28.659Z,2.00
2023-03-29T03:21:31.500Z,2.00
2023-03-29T03:23:37.179Z,2.10
2023-03-29T03:25:40.016Z,1.88
2023-03-29T03:27:42.829Z,1.88
2023-03-29T03:29:47.140Z,1.92
2023-03-29T03:32:08.628Z,2.28
2023-03-29T03:34:26.288Z,2.20
2023-03-29T03:36:34.625Z,1.83
2023-03-29T03:38:39.696Z,2.15
2023-03-29T03:40:42.528Z,1.88
2023-03-29T03:42:45.467Z,1.90
2023-03-29T03:44:48.744Z,2.20
2023-03-29T03:47:10.166Z,1.75
2023-03-29T03:49:14.400Z,2.47
2023-03-29T03:51:18.983Z,2.20
2023-03-29T03:53:26.081Z,2.70
2023-03-29T03:55:50.169Z,1.88
2023-03-29T03:57:58.141Z,2.35
2023-03-29T04:00:01.115Z,1.90
2023-03-29T04:02:15.588Z,2.53
2023-03-29T04:04:20.551Z,2.80
2023-03-29T04:06:43.778Z,2.25
2023-03-29T04:09:15.789Z,2.80
2023-03-29T04:11:25.606Z,2.53
2023-03-29T04:13:29.175Z,2.20
2023-03-29T04:15:57.693Z,2.70
2023-03-29T04:18:02.843Z,2.38
2023-03-29T04:20:11.876Z,1.98
2023-03-29T04:22:16.315Z,2.50
2023-03-29T04:24:19.421Z,2.03
2023-03-29T04:26:41.212Z,2.33
2023-03-29T04:28:51.329Z,2.13
2023-03-29T04:31:06.624Z,2.20
2023-03-29T04:33:21.616Z,2.38
2023-03-29T04:35:31.533Z,2.10
2023-03-29T04:37:35.057Z,2.08
2023-03-29T04:39:38.751Z,2.33
2023-03-29T04:41:43.709Z,1.90
2023-03-29T04:43:55.964Z,2.28
2023-03-29T04:46:03.473Z,2.15
2023-03-29T04:48:26.817Z,2.13
2023-03-29T04:50:29.776Z,2.10
2023-03-29T04:52:33.405Z,2.45
2023-03-29T04:54:38.271Z,2.05
2023-03-29T04:56:52.526Z,2.50
2023-03-29T04:59:24.623Z,2.15
2023-03-29T05:01:27.565Z,2.20
2023-03-29T05:03:34.292Z,2.10
2023-03-29T05:05:45.776Z,2.17
2023-03-29T05:07:48.569Z,2.00
2023-03-29T05:09:55.576Z,2.30
2023-03-29T05:11:59.774Z,1.88
2023-03-29T05:14:07.292Z,2.38
2023-03-29T05:16:32.848Z,2.58
2023-03-29T05:18:36.386Z,2.25
2023-03-29T05:20:40.475Z,2.45
2023-03-29T05:22:43.538Z,2.45
2023-03-29T05:24:51.508Z,2.20
2023-03-29T05:26:55.333Z,2.20
2023-03-29T05:29:00.855Z,2.40
2023-03-29T05:31:06.164Z,2.75
2023-03-29T05:33:12.247Z,2.08
2023-03-29T05:35:16.038Z,2.60
2023-03-29T05:37:20.182Z,2.40
2023-03-29T05:39:28.333Z,2.00
2023-03-29T05:41:31.370Z,2.42
2023-03-29T05:43:53.293Z,2.40
2023-03-29T05:46:01.785Z,2.30
2023-03-29T05:48:07.806Z,2.40
2023-03-29T05:50:11.535Z,2.70
2023-03-29T05:52:15.199Z,2.50
2023-03-29T05:54:18.062Z,2.38
2023-03-29T05:56:20.948Z,2.70
2023-03-29T05:58:26.355Z,2.25
2023-03-29T06:02:49.529Z,2.50
2023-03-29T06:04:53.869Z,2.75
2023-03-29T06:07:02.043Z,2.67
2023-03-29T06:09:06.830Z,2.60
2023-03-29T06:11:14.324Z,2.60
2023-03-29T06:13:37.116Z,2.25
2023-03-29T06:15:40.213Z,2.28
2023-03-29T06:17:47.101Z,2.42
2023-03-29T06:19:52.973Z,2.70
2023-03-29T06:21:58.854Z,2.40
2023-03-29T06:24:04.105Z,2.47
2023-03-29T06:26:13.794Z,2.40
2023-03-29T06:28:17.606Z,2.63
2023-03-29T06:30:21.325Z,2.22
2023-03-29T06:32:28.341Z,2.78
2023-03-29T06:34:44.563Z,2.22
2023-03-29T06:37:09.137Z,2.50
2023-03-29T06:39:11.986Z,2.58
2023-03-29T06:41:30.501Z,2.65
2023-03-29T06:43:42.533Z,2.30
2023-03-29T06:45:50.918Z,2.88
2023-03-29T06:48:02.060Z,2.30
2023-03-29T06:50:07.027Z,2.38
2023-03-29T06:52:23.609Z,2.92
2023-03-29T06:54:27.035Z,2.30
2023-03-29T06:56:36.536Z,2.80
2023-03-29T06:58:42.950Z,2.67
2023-03-29T07:01:21.673Z,2.58
2023-03-29T07:03:35.194Z,2.88
2023-03-29T07:05:40.783Z,2.55
2023-03-29T07:07:56.518Z,2.88
2023-03-29T07:10:12.806Z,3.13
2023-03-29T07:12:51.476Z,2.58
2023-03-29T07:14:54.385Z,2.83
2023-03-29T07:16:59.373Z,3.13
2023-03-29T07:19:06.378Z,2.53
2023-03-29T07:21:37.319Z,2.83
2023-03-29T07:23:42.568Z,2.78
2023-03-29T07:25:47.248Z,2.75
2023-03-29T07:27:50.729Z,2.88
2023-03-29T07:29:53.685Z,3.03
2023-03-29T07:31:57.667Z,2.85
2023-03-29T07:34:27.070Z,3.22
2023-03-29T07:36:30.283Z,3.00
2023-03-29T07:38:33.265Z,2.83
2023-03-29T07:40:47.051Z,2.97
2023-03-29T07:43:10.978Z,2.58
2023-03-29T07:45:16.425Z,2.80
2023-03-29T07:47:32.143Z,2.58
2023-03-29T07:49:35.218Z,2.13
2023-03-29T07:51:38.131Z,2.25
2023-03-29T07:53:46.579Z,2.40
2023-03-29T07:56:20.444Z,2.95
2023-03-29T07:58:27.513Z,2.17
2023-03-29T08:00:30.413Z,2.38
2023-03-29T08:02:53.656Z,2.20
2023-03-29T08:04:56.967Z,2.65
2023-03-29T08:07:19.805Z,2.63
2023-03-29T08:09:43.361Z,2.47
2023-03-29T08:11:47.699Z,2.50
2023-03-29T08:13:56.238Z,2.17
2023-03-29T08:15:59.097Z,2.22
2023-03-29T08:18:14.078Z,2.25
2023-03-29T08:20:17.585Z,3.22
2023-03-29T08:22:23.010Z,2.75
2023-03-29T08:24:44.567Z,2.28
2023-03-29T08:26:49.090Z,2.92
2023-03-29T08:28:54.897Z,2.78
2023-03-29T08:30:59.957Z,3.10
2023-03-29T08:33:02.951Z,3.10
2023-03-29T08:35:09.714Z,2.40
2023-03-29T08:37:19.653Z,3.10
2023-03-29T08:39:24.755Z,2.50
2023-03-29T08:41:57.290Z,2.75
2023-03-29T08:44:35.179Z,2.40
2023-03-29T08:46:48.596Z,2.15
2023-03-29T08:49:10.395Z,2.47
2023-03-29T08:51:21.441Z,2.65
2023-03-29T08:53:30.639Z,2.72
2023-03-29T08:55:49.995Z,2.30
2023-03-29T08:58:16.990Z,3.72
2023-03-29T09:00:25.572Z,2.20
2023-03-29T09:02:32.730Z,2.50
2023-03-29T09:04:42.451Z,2.75
2023-03-29T09:07:05.035Z,3.08
2023-03-29T09:09:18.553Z,2.90
2023-03-29T09:11:49.944Z,2.90
2023-03-29T09:14:05.047Z,3.17
2023-03-29T09:16:19.198Z,3.42
2023-03-29T09:18:33.801Z,3.45
2023-03-29T09:20:44.932Z,3.45
2023-03-29T09:22:57.676Z,3.65
2023-03-29T09:25:12.968Z,3.30
2023-03-29T09:27:24.330Z,3.42
2023-03-29T09:29:46.468Z,2.90
2023-03-29T09:31:51.120Z,2.83
2023-03-29T09:33:59.646Z,3.30
2023-03-29T09:36:19.010Z,3.25
2023-03-29T09:38:24.046Z,3.30
2023-03-29T09:40:32.346Z,3.58
2023-03-29T09:42:50.437Z,2.72
2023-03-29T09:44:58.370Z,3.15
2023-03-29T09:47:18.579Z,2.95
2023-03-29T09:49:25.924Z,2.53
2023-03-29T09:51:31.932Z,2.28
2023-03-29T09:53:34.843Z,3.30
2023-03-29T09:55:51.904Z,2.13
2023-03-29T09:58:19.755Z,2.50
2023-03-29T10:00:27.903Z,2.47
2023-03-29T10:02:32.678Z,2.28
2023-03-29T10:06:43.203Z,2.88
2023-03-29T10:08:51.705Z,2.53
2023-03-29T10:10:57.421Z,2.42
2023-03-29T10:13:04.116Z,2.63
2023-03-29T10:15:16.745Z,2.30
2023-03-29T10:17:32.687Z,2.20
2023-03-29T10:19:36.944Z,2.80
2023-03-29T10:21:42.156Z,2.70
2023-03-29T10:23:45.020Z,2.15
2023-03-29T10:25:48.096Z,2.20
2023-03-29T10:27:50.971Z,2.78
2023-03-29T10:29:55.323Z,2.40
2023-03-29T10:31:58.176Z,2.47
2023-03-29T10:34:06.230Z,2.13
2023-03-29T10:36:12.956Z,2.35
2023-03-29T10:38:18.625Z,2.30
2023-03-29T10:40:26.643Z,2.47
2023-03-29T10:42:29.588Z,1.40
2023-03-29T10:44:35.416Z,2.13
2023-03-29T10:46:43.885Z,2.13
2023-03-29T10:48:49.064Z,2.50
2023-03-29T10:50:53.344Z,1.75
2023-03-29T10:52:56.391Z,2.00
2023-03-29T10:55:00.063Z,2.58
2023-03-29T10:57:08.595Z,2.00
2023-03-29T10:59:32.072Z,1.98
2023-03-29T11:01:45.204Z,3.15
2023-03-29T11:04:09.840Z,2.17
2023-03-29T11:06:21.529Z,2.50
2023-03-29T11:08:52.580Z,2.58
2023-03-29T11:11:05.969Z,2.33
2023-03-29T11:13:17.278Z,2.17
2023-03-29T11:15:34.281Z,2.95
2023-03-29T11:17:52.692Z,2.65
2023-03-29T11:20:05.882Z,1.90
2023-03-29T11:22:16.628Z,1.80
2023-03-29T11:24:43.718Z,2.22
2023-03-29T11:26:59.979Z,2.70
2023-03-29T11:29:09.210Z,2.30
2023-03-29T11:31:23.293Z,2.90
2023-03-29T11:33:38.616Z,3.03
2023-03-29T11:35:49.158Z,2.80
2023-03-29T11:38:00.814Z,3.10
2023-03-29T11:40:22.798Z,2.88
2023-03-29T11:42:32.031Z,2.83
2023-03-29T11:44:36.970Z,2.97
2023-03-29T11:46:43.475Z,2.25
2023-03-29T11:48:53.168Z,2.45
2023-03-29T11:51:00.777Z,2.35
2023-03-29T11:53:11.947Z,2.53
2023-03-29T11:55:18.869Z,2.60
2023-03-29T11:57:27.430Z,2.50
2023-03-29T11:59:35.701Z,2.60
2023-03-29T12:01:46.417Z,2.03
2023-03-29T12:03:53.423Z,2.38
2023-03-29T12:05:59.669Z,1.98
2023-03-29T12:08:08.300Z,2.40
2023-03-29T12:10:18.791Z,2.15
2023-03-29T12:12:27.730Z,2.28
2023-03-29T12:14:43.329Z,4.20
2023-03-29T12:17:07.566Z,2.47
2023-03-29T12:19:18.856Z,3.00
2023-03-29T12:21:23.864Z,1.88
2023-03-29T12:23:31.697Z,2.20
2023-03-29T12:25:42.284Z,2.20
2023-03-29T12:27:53.767Z,1.85
2023-03-29T12:30:19.522Z,2.05
2023-03-29T12:32:50.639Z,1.92
2023-03-29T12:35:38.336Z,2.13
2023-03-29T12:38:20.546Z,2.42
2023-03-29T12:40:46.330Z,1.95
2023-03-29T12:43:10.287Z,2.40
2023-03-29T12:45:34.119Z,2.80
2023-03-29T12:47:44.562Z,1.92
2023-03-29T12:49:47.991Z,2.50
2023-03-29T12:51:51.144Z,2.28
2023-03-29T12:53:56.367Z,1.77
2023-03-29T12:56:13.607Z,2.20
2023-03-29T12:58:28.065Z,2.50
2023-03-29T13:00:34.863Z,2.38
2023-03-29T13:02:39.196Z,2.33
2023-03-29T13:04:51.225Z,1.80
2023-03-29T13:07:04.048Z,2.60
2023-03-29T13:09:22.954Z,2.15
2023-03-29T13:11:52.602Z,1.85
2023-03-29T13:13:57.273Z,1.90
2023-03-29T13:16:12.799Z,2.10
2023-03-29T13:18:33.971Z,2.10
2023-03-29T13:20:46.948Z,1.90
2023-03-29T13:23:05.625Z,1.90
2023-03-29T13:25:25.364Z,2.45
2023-03-29T13:27:42.311Z,2.25
2023-03-29T13:30:00.623Z,1.70
2023-03-29T13:32:18.176Z,1.67
2023-03-29T13:34:35.902Z,1.60
2023-03-29T13:36:53.557Z,2.08
2023-03-29T13:38:56.895Z,2.83
2023-03-29T13:41:04.934Z,2.40
2023-03-29T13:43:12.416Z,1.85
2023-03-29T13:45:17.578Z,1.83
2023-03-29T13:47:39.279Z,1.52
2023-03-29T13:49:45.345Z,1.80
2023-03-29T13:52:06.562Z,1.92
2023-03-29T13:54:21.516Z,2.15
2023-03-29T13:56:27.196Z,1.88
2023-03-29T13:58:39.159Z,2.00
2023-03-29T14:00:49.275Z,1.77
2023-03-29T14:02:56.225Z,1.67
2023-03-29T14:05:04.168Z,1.55
2023-03-29T14:07:10.619Z,2.00
2023-03-29T14:09:15.327Z,2.22
2023-03-29T14:11:24.129Z,2.10
2023-03-29T14:13:27.107Z,1.70
2023-03-29T14:15:43.455Z,2.05
2023-03-29T14:17:46.704Z,2.20
2023-03-29T14:19:50.194Z,2.78
2023-03-29T14:21:54.130Z,1.90
2023-03-29T14:24:01.462Z,2.35
2023-03-29T14:26:09.126Z,2.05
2023-03-29T14:28:21.767Z,2.08
2023-03-29T14:30:28.379Z,1.77
2023-03-29T14:32:32.835Z,1.63
2023-03-29T14:34:35.646Z,2.17
2023-03-29T14:36:40.076Z,2.13
2023-03-29T14:38:49.510Z,1.90
2023-03-29T14:40:52.538Z,1.70
2023-03-29T14:42:56.247Z,2.03
2023-03-29T14:45:04.047Z,2.23
2023-03-29T14:47:07.100Z,1.60
2023-03-29T14:49:16.070Z,1.85
2023-03-29T14:51:20.081Z,1.42
2023-03-29T14:53:24.619Z,1.50
2023-03-29T14:57:35.066Z,1.60
2023-03-29T14:59:39.920Z,1.52
2023-03-29T15:01:45.175Z,1.40
2023-03-29T15:03:54.839Z,1.55
2023-03-29T15:06:02.839Z,1.75
2023-03-29T15:08:08.746Z,1.30
2023-03-29T15:10:18.619Z,1.30
2023-03-29T15:12:22.104Z,1.40
2023-03-29T15:14:27.814Z,1.70
2023-03-29T15:16:31.443Z,1.40
2023-03-29T15:18:39.772Z,1.20
2023-03-29T15:20:44.804Z,1.50
2023-03-29T15:22:59.025Z,1.60
2023-03-29T15:25:02.017Z,1.48
2023-03-29T15:27:12.395Z,1.38
2023-03-29T15:29:23.667Z,1.50
2023-03-29T15:31:34.521Z,1.60
2023-03-29T15:33:39.369Z,1.55
2023-03-29T15:35:43.363Z,1.17
2023-03-29T15:37:46.176Z,1.50
2023-03-29T15:39:51.001Z,1.40
2023-03-29T15:41:54.452Z,1.73
2023-03-29T15:43:57.468Z,1.10
2023-03-29T15:46:00.266Z,1.10
2023-03-29T15:48:04.773Z,1.35
2023-03-29T15:52:10.631Z,1.23
2023-03-29T15:54:13.678Z,1.17
2023-03-29T15:56:22.864Z,1.75
2023-03-29T15:58:28.746Z,1.77
2023-03-29T16:00:31.753Z,1.40
2023-03-29T16:02:35.241Z,1.30
2023-03-29T16:04:38.091Z,1.50
2023-03-29T16:06:41.082Z,1.45
2023-03-29T16:08:44.010Z,1.88
2023-03-29T16:10:47.018Z,1.45
2023-03-29T16:12:51.294Z,1.38
2023-03-29T16:14:54.071Z,1.30
2023-03-29T16:17:00.545Z,1.70
2023-03-29T16:19:03.405Z,1.38
2023-03-29T16:21:07.037Z,1.20
2023-03-29T16:23:11.400Z,1.67
2023-03-29T16:25:15.811Z,1.40
2023-03-29T16:27:18.839Z,1.50
2023-03-29T16:29:23.015Z,1.30
2023-03-29T16:31:26.929Z,1.48
2023-03-29T16:33:29.951Z,1.40
2023-03-29T16:35:35.443Z,1.58
2023-03-29T16:37:38.242Z,1.70
2023-03-29T16:39:40.996Z,1.58
2023-03-29T16:41:45.112Z,1.50
2023-03-29T16:43:47.923Z,1.40
2023-03-29T16:45:52.238Z,1.60
2023-03-29T16:47:56.043Z,1.30
2023-03-29T16:49:58.906Z,1.53
2023-03-29T16:52:01.692Z,1.60
2023-03-29T16:54:04.816Z,1.75
2023-03-29T16:56:08.786Z,1.65
2023-03-29T16:58:11.599Z,1.48
2023-03-29T17:00:19.657Z,1.35
2023-03-29T17:02:23.933Z,1.73
2023-03-29T17:04:26.813Z,1.63
2023-03-29T17:06:31.816Z,1.35
2023-03-29T17:08:34.829Z,2.28
2023-03-29T17:10:38.004Z,1.20
2023-03-29T17:12:40.947Z,1.50
2023-03-29T17:14:43.744Z,1.48
2023-03-29T17:16:46.728Z,2.22
2023-03-29T17:18:50.975Z,2.10
2023-03-29T17:20:57.111Z,1.63
2023-03-29T17:22:59.864Z,1.58
2023-03-29T17:25:03.762Z,1.52
2023-03-29T17:27:06.625Z,1.92
2023-03-29T17:29:09.432Z,1.77
2023-03-29T17:31:12.283Z,1.40
2023-03-29T17:33:15.294Z,1.92
2023-03-29T17:35:19.461Z,1.77
2023-03-29T17:37:22.718Z,1.83
2023-03-29T17:39:27.016Z,1.38
2023-03-29T17:41:31.037Z,1.70
2023-03-29T17:43:34.068Z,1.77
2023-03-29T17:45:36.928Z,1.63
2023-03-29T17:47:40.000Z,1.83
2023-03-29T17:49:43.794Z,1.75
2023-03-29T17:51:47.989Z,1.60
2023-03-29T17:53:52.337Z,1.75
2023-03-29T17:55:55.403Z,1.52
2023-03-29T17:57:58.292Z,1.30
2023-03-29T18:00:01.104Z,1.48
2023-03-29T18:02:05.334Z,1.42
2023-03-29T18:04:08.458Z,1.67
2023-03-29T18:06:11.505Z,1.77
2023-03-29T18:08:16.661Z,2.08
2023-03-29T18:10:19.834Z,2.05
2023-03-29T18:12:23.715Z,2.10
2023-03-29T18:14:26.516Z,2.05
2023-03-29T18:16:29.420Z,1.88
2023-03-29T18:18:32.786Z,1.75
2023-03-29T18:20:35.637Z,2.30
2023-03-29T18:22:38.744Z,2.20
2023-03-29T18:24:42.919Z,2.78
2023-03-29T18:26:45.816Z,1.80
2023-03-29T18:28:48.802Z,2.22
2023-03-29T18:30:51.687Z,2.10
2023-03-29T18:32:54.474Z,1.73
2023-03-29T18:34:57.330Z,2.17
2023-03-29T18:37:00.301Z,2.10
2023-03-29T18:39:05.614Z,2.50
2023-03-29T18:41:11.197Z,2.65
2023-03-29T18:43:14.148Z,2.30
2023-03-29T18:45:17.222Z,2.75
2023-03-29T18:47:20.070Z,2.60
2023-03-29T18:49:22.947Z,2.70
2023-03-29T18:51:28.005Z,2.25
2023-03-29T18:53:30.939Z,2.47
2023-03-29T18:55:33.746Z,1.98
2023-03-29T18:57:37.980Z,2.47
2023-03-29T18:59:40.757Z,2.53
2023-03-29T19:01:43.594Z,2.28
2023-03-29T19:03:46.852Z,2.08
2023-03-29T19:05:55.108Z,2.65
2023-03-29T19:07:58.242Z,2.58
2023-03-29T19:10:02.107Z,2.50
2023-03-29T19:12:05.595Z,2.45
2023-03-29T19:14:09.741Z,2.15
2023-03-29T19:16:12.644Z,2.38
2023-03-29T19:18:15.985Z,2.85
2023-03-29T19:20:18.997Z,2.50
2023-03-29T19:22:21.894Z,2.75
2023-03-29T19:24:24.716Z,2.10
2023-03-29T19:26:28.265Z,2.38
2023-03-29T19:28:31.393Z,1.83
2023-03-29T19:30:36.500Z,2.38
2023-03-29T19:32:39.460Z,2.10
2023-03-29T19:34:42.387Z,2.40
2023-03-29T19:36:45.441Z,2.08
2023-03-29T19:38:48.236Z,3.10
2023-03-29T19:40:52.431Z,2.40
2023-03-29T19:42:55.274Z,2.25
2023-03-29T19:44:58.140Z,2.40
2023-03-29T19:47:02.408Z,2.15
2023-03-29T19:49:05.797Z,2.10
2023-03-29T19:51:08.920Z,2.63
2023-03-29T19:53:12.451Z,2.70
2023-03-29T19:55:15.355Z,2.78
2023-03-29T19:57:19.213Z,2.50
2023-03-29T19:59:22.663Z,2.25
2023-03-29T20:01:27.174Z,2.47
2023-03-29T20:05:39.719Z,2.67
2023-03-29T20:07:42.551Z,2.70
2023-03-29T20:09:45.905Z,2.70
2023-03-29T20:11:48.695Z,2.28
2023-03-29T20:13:51.532Z,2.50
2023-03-29T20:15:54.906Z,2.83
2023-03-29T20:17:59.701Z,3.10
2023-03-29T20:20:04.524Z,2.72
2023-03-29T20:22:08.651Z,3.13
2023-03-29T20:24:11.934Z,2.17
2023-03-29T20:26:15.365Z,2.35
2023-03-29T20:28:18.335Z,2.38
2023-03-29T20:30:21.497Z,1.92
2023-03-29T20:32:24.432Z,2.58
2023-03-29T20:34:27.292Z,1.77
2023-03-29T20:36:30.634Z,2.25
2023-03-29T20:38:35.218Z,2.30
2023-03-29T20:40:38.672Z,1.83
2023-03-29T20:42:41.502Z,1.73
2023-03-29T20:44:50.371Z,1.90
2023-03-29T20:47:03.684Z,1.85
2023-03-29T20:49:08.800Z,1.95
2023-03-29T20:51:11.993Z,2.15
2023-03-29T20:53:16.199Z,2.15
2023-03-29T20:55:22.216Z,2.08
2023-03-29T20:57:25.034Z,2.20
2023-03-29T20:59:28.508Z,1.88
2023-03-29T21:01:31.317Z,2.00
2023-03-29T21:03:34.243Z,2.08
2023-03-29T21:05:37.141Z,2.03
2023-03-29T21:07:40.191Z,2.40
2023-03-29T21:09:43.518Z,2.30
2023-03-29T21:11:47.726Z,2.38
2023-03-29T21:13:52.819Z,2.50
2023-03-29T21:15:55.829Z,2.28
2023-03-29T21:17:58.799Z,2.08
2023-03-29T21:20:07.404Z,2.47
2023-03-29T21:22:13.583Z,2.63
2023-03-29T21:24:16.434Z,2.58
2023-03-29T21:26:19.335Z,2.00
2023-03-29T21:28:23.515Z,2.67
2023-03-29T21:30:26.307Z,2.53
2023-03-29T21:32:29.067Z,2.20
2023-03-29T21:34:31.852Z,2.88
2023-03-29T21:36:34.693Z,2.17
2023-03-29T21:38:37.552Z,2.45
2023-03-29T21:40:40.367Z,2.92
2023-03-29T21:42:43.196Z,2.30
2023-03-29T21:44:47.364Z,2.13
2023-03-29T21:46:50.370Z,2.00
2023-03-29T21:48:53.278Z,2.00
2023-03-29T21:50:56.130Z,2.05
2023-03-29T21:52:58.901Z,1.85
2023-03-29T21:55:01.753Z,3.00
2023-03-29T21:57:04.798Z,2.92
2023-03-29T21:59:07.720Z,2.00
2023-03-29T22:01:11.900Z,2.05
2023-03-29T22:03:16.423Z,2.40
2023-03-29T22:05:19.360Z,2.33
2023-03-29T22:07:26.444Z,2.42
2023-03-29T22:09:29.282Z,2.22
2023-03-29T22:11:32.290Z,1.90
2023-03-29T22:13:35.231Z,2.97
2023-03-29T22:15:38.813Z,2.70
2023-03-29T22:17:43.208Z,3.47
2023-03-29T22:19:47.527Z,2.33
2023-03-29T22:21:51.256Z,2.83
2023-03-29T22:23:56.099Z,3.08
2023-03-29T22:25:58.989Z,2.58
2023-03-29T22:28:01.805Z,2.42
2023-03-29T22:30:06.539Z,2.80
2023-03-29T22:34:13.494Z,2.40
2023-03-29T22:36:18.166Z,2.35
2023-03-29T22:40:26.603Z,1.90
2023-03-29T22:42:29.396Z,2.50
2023-03-29T22:44:36.888Z,2.47
2023-03-29T22:46:39.680Z,2.47
2023-03-29T22:48:42.501Z,2.40
2023-03-29T22:50:48.232Z,2.22
2023-03-29T22:52:51.110Z,2.65
2023-03-29T22:54:53.900Z,2.67
2023-03-29T22:56:56.997Z,2.65
2023-03-29T22:58:59.836Z,2.50
2023-03-29T23:01:03.012Z,2.38
2023-03-29T23:03:06.559Z,2.75
2023-03-29T23:05:09.596Z,2.95
2023-03-29T23:07:13.765Z,2.30
2023-03-29T23:09:16.731Z,2.72
2023-03-29T23:11:22.100Z,2.38
2023-03-29T23:13:25.978Z,2.15
2023-03-29T23:15:29.707Z,2.90
2023-03-29T23:17:33.108Z,3.10
2023-03-29T23:19:35.918Z,2.40
2023-03-29T23:21:38.947Z,3.83
2023-03-29T23:23:43.421Z,2.67
2023-03-29T23:25:47.429Z,2.85
2023-03-29T23:27:50.151Z,2.80
2023-03-29T23:29:52.955Z,2.65
2023-03-29T23:31:56.701Z,2.83
2023-03-29T23:33:59.851Z,2.63
2023-03-29T23:36:04.210Z,2.33
2023-03-29T23:38:08.405Z,3.47
2023-03-29T23:40:15.495Z,3.22
2023-03-29T23:42:18.345Z,2.65
2023-03-29T23:44:21.114Z,2.42
2023-03-29T23:46:24.600Z,3.10
2023-03-29T23:48:28.075Z,2.83
2023-03-29T23:50:30.849Z,3.08
2023-03-29T23:52:33.905Z,2.97
2023-03-29T23:54:36.645Z,2.90
2023-03-29T23:56:40.889Z,3.00
2023-03-29T23:58:44.418Z,2.40
